sensor_id;sensor_type;location;lat;lon;timestamp;pressure;altitude;pressure_sealevel;temperature;humidity
80248;BME280;69560;52.206;21.018;2023-10-31T00:00:22;99031.49;;;13.22;63.89
80248;BME280;69560;52.206;21.018;2023-10-31T00:03:08;99018.39;;;13.21;64.01
80248;BME280;69560;52.206;21.018;2023-10-31T00:05:36;99015.20;;;13.20;64.05
80248;BME280;69560;52.206;21.018;2023-10-31T00:08:02;99010.19;;;13.21;64.21
80248;BME280;69560;52.206;21.018;2023-10-31T00:10:29;99007.05;;;13.23;64.08
80248;BME280;69560;52.206;21.018;2023-10-31T00:12:55;99008.55;;;13.26;64.14
80248;BME280;69560;52.206;21.018;2023-10-31T00:15:22;98997.94;;;13.28;64.26
80248;BME280;69560;52.206;21.018;2023-10-31T00:17:50;98992.47;;;13.32;64.19
80248;BME280;69560;52.206;21.018;2023-10-31T00:20:17;98997.55;;;13.34;64.27
80248;BME280;69560;52.206;21.018;2023-10-31T00:22:43;98989.84;;;13.34;64.10
80248;BME280;69560;52.206;21.018;2023-10-31T00:25:10;98985.33;;;13.31;64.03
80248;BME280;69560;52.206;21.018;2023-10-31T00:27:36;98989.42;;;13.29;64.10
80248;BME280;69560;52.206;21.018;2023-10-31T00:30:03;98987.32;;;13.24;64.11
80248;BME280;69560;52.206;21.018;2023-10-31T00:32:30;98980.09;;;13.23;64.13
80248;BME280;69560;52.206;21.018;2023-10-31T00:34:57;98978.08;;;13.19;63.93
80248;BME280;69560;52.206;21.018;2023-10-31T00:37:23;98978.78;;;13.13;64.00
80248;BME280;69560;52.206;21.018;2023-10-31T00:39:49;98976.66;;;13.11;64.04
80248;BME280;69560;52.206;21.018;2023-10-31T00:42:16;98974.27;;;13.11;64.12
80248;BME280;69560;52.206;21.018;2023-10-31T00:44:43;98970.14;;;13.10;64.33
80248;BME280;69560;52.206;21.018;2023-10-31T00:47:09;98962.53;;;13.09;64.23
80248;BME280;69560;52.206;21.018;2023-10-31T00:49:36;98955.71;;;13.07;64.31
80248;BME280;69560;52.206;21.018;2023-10-31T00:52:03;98951.34;;;13.06;64.27
80248;BME280;69560;52.206;21.018;2023-10-31T00:54:29;98947.78;;;13.03;64.23
80248;BME280;69560;52.206;21.018;2023-10-31T00:56:56;98945.30;;;13.03;64.28
80248;BME280;69560;52.206;21.018;2023-10-31T00:59:22;98932.52;;;13.04;64.54
80248;BME280;69560;52.206;21.018;2023-10-31T01:01:49;98929.46;;;13.05;64.55
80248;BME280;69560;52.206;21.018;2023-10-31T01:04:15;98923.75;;;13.05;64.51
80248;BME280;69560;52.206;21.018;2023-10-31T01:06:42;98924.30;;;13.05;64.52
80248;BME280;69560;52.206;21.018;2023-10-31T01:09:09;98920.15;;;13.07;64.58
80248;BME280;69560;52.206;21.018;2023-10-31T01:11:36;98914.58;;;13.08;64.64
80248;BME280;69560;52.206;21.018;2023-10-31T01:14:03;98911.29;;;13.10;64.47
80248;BME280;69560;52.206;21.018;2023-10-31T01:16:29;98899.73;;;13.11;64.56
80248;BME280;69560;52.206;21.018;2023-10-31T01:18:55;98887.95;;;13.13;64.68
80248;BME280;69560;52.206;21.018;2023-10-31T01:21:22;98880.24;;;13.12;64.63
80248;BME280;69560;52.206;21.018;2023-10-31T01:23:48;98876.91;;;13.11;64.69
80248;BME280;69560;52.206;21.018;2023-10-31T01:26:15;98867.25;;;13.07;64.52
80248;BME280;69560;52.206;21.018;2023-10-31T01:28:41;98862.59;;;13.04;64.54
80248;BME280;69560;52.206;21.018;2023-10-31T01:31:08;98852.75;;;13.03;64.60
80248;BME280;69560;52.206;21.018;2023-10-31T01:33:35;98876.98;;;13.05;64.68
80248;BME280;69560;52.206;21.018;2023-10-31T01:36:02;98872.86;;;13.04;64.66
80248;BME280;69560;52.206;21.018;2023-10-31T01:38:29;98873.42;;;13.01;64.70
80248;BME280;69560;52.206;21.018;2023-10-31T01:40:55;98876.15;;;12.99;64.77
80248;BME280;69560;52.206;21.018;2023-10-31T01:43:32;98886.83;;;12.98;64.91
80248;BME280;69560;52.206;21.018;2023-10-31T01:45:59;98881.79;;;12.93;64.74
80248;BME280;69560;52.206;21.018;2023-10-31T01:48:31;98874.83;;;12.84;64.88
80248;BME280;69560;52.206;21.018;2023-10-31T01:50:59;98872.58;;;12.80;64.99
80248;BME280;69560;52.206;21.018;2023-10-31T01:53:27;98857.42;;;12.77;65.08
80248;BME280;69560;52.206;21.018;2023-10-31T01:55:55;98835.17;;;12.76;65.14
80248;BME280;69560;52.206;21.018;2023-10-31T01:58:27;98812.92;;;12.75;65.31
80248;BME280;69560;52.206;21.018;2023-10-31T02:00:55;98797.10;;;12.75;65.35
80248;BME280;69560;52.206;21.018;2023-10-31T02:03:22;98789.14;;;12.77;65.52
80248;BME280;69560;52.206;21.018;2023-10-31T02:05:48;98785.05;;;12.80;65.51
80248;BME280;69560;52.206;21.018;2023-10-31T02:08:17;98776.50;;;12.83;65.52
80248;BME280;69560;52.206;21.018;2023-10-31T02:10:44;98763.33;;;12.87;65.53
80248;BME280;69560;52.206;21.018;2023-10-31T02:13:14;98761.69;;;12.90;65.58
80248;BME280;69560;52.206;21.018;2023-10-31T02:15:41;98761.92;;;12.91;65.66
80248;BME280;69560;52.206;21.018;2023-10-31T02:18:08;98761.86;;;12.89;65.64
80248;BME280;69560;52.206;21.018;2023-10-31T02:20:35;98761.95;;;12.89;65.61
80248;BME280;69560;52.206;21.018;2023-10-31T02:23:02;98755.66;;;12.89;65.72
80248;BME280;69560;52.206;21.018;2023-10-31T02:25:29;98748.33;;;12.90;65.69
80248;BME280;69560;52.206;21.018;2023-10-31T02:27:56;98743.84;;;12.93;65.79
80248;BME280;69560;52.206;21.018;2023-10-31T02:30:23;98742.45;;;12.95;65.84
80248;BME280;69560;52.206;21.018;2023-10-31T02:32:49;98734.23;;;12.97;65.73
80248;BME280;69560;52.206;21.018;2023-10-31T02:35:17;98732.95;;;12.97;65.83
80248;BME280;69560;52.206;21.018;2023-10-31T02:37:44;98730.84;;;12.97;65.84
80248;BME280;69560;52.206;21.018;2023-10-31T02:40:13;98725.59;;;12.96;65.81
80248;BME280;69560;52.206;21.018;2023-10-31T02:42:39;98724.54;;;12.96;65.91
80248;BME280;69560;52.206;21.018;2023-10-31T02:45:06;98726.85;;;12.97;65.88
80248;BME280;69560;52.206;21.018;2023-10-31T02:47:33;98720.27;;;13.00;66.00
80248;BME280;69560;52.206;21.018;2023-10-31T02:50:00;98712.14;;;13.02;66.02
80248;BME280;69560;52.206;21.018;2023-10-31T02:52:26;98703.74;;;13.08;66.06
80248;BME280;69560;52.206;21.018;2023-10-31T02:54:53;98696.77;;;13.11;66.09
80248;BME280;69560;52.206;21.018;2023-10-31T02:57:20;98695.48;;;13.12;66.06
80248;BME280;69560;52.206;21.018;2023-10-31T02:59:46;98691.95;;;13.14;65.99
80248;BME280;69560;52.206;21.018;2023-10-31T03:02:12;98693.46;;;13.14;65.98
80248;BME280;69560;52.206;21.018;2023-10-31T03:04:39;98686.47;;;13.14;66.06
80248;BME280;69560;52.206;21.018;2023-10-31T03:07:05;98678.66;;;13.15;66.10
80248;BME280;69560;52.206;21.018;2023-10-31T03:09:32;98668.70;;;13.16;66.11
80248;BME280;69560;52.206;21.018;2023-10-31T03:11:58;98664.95;;;13.16;66.07
80248;BME280;69560;52.206;21.018;2023-10-31T03:14:25;98668.92;;;13.17;66.21
80248;BME280;69560;52.206;21.018;2023-10-31T03:16:51;98668.60;;;13.17;66.17
80248;BME280;69560;52.206;21.018;2023-10-31T03:19:17;98675.67;;;13.18;66.28
80248;BME280;69560;52.206;21.018;2023-10-31T03:21:44;98661.88;;;13.19;66.24
80248;BME280;69560;52.206;21.018;2023-10-31T03:24:11;98659.90;;;13.23;66.29
80248;BME280;69560;52.206;21.018;2023-10-31T03:26:37;98657.50;;;13.24;66.19
80248;BME280;69560;52.206;21.018;2023-10-31T03:29:03;98655.97;;;13.25;66.26
80248;BME280;69560;52.206;21.018;2023-10-31T03:31:30;98651.02;;;13.26;66.48
80248;BME280;69560;52.206;21.018;2023-10-31T03:33:56;98647.60;;;13.26;66.22
80248;BME280;69560;52.206;21.018;2023-10-31T03:36:23;98646.38;;;13.28;66.34
80248;BME280;69560;52.206;21.018;2023-10-31T03:38:49;98642.27;;;13.32;66.37
80248;BME280;69560;52.206;21.018;2023-10-31T03:41:16;98638.94;;;13.35;66.24
80248;BME280;69560;52.206;21.018;2023-10-31T03:43:42;98626.32;;;13.38;66.30
80248;BME280;69560;52.206;21.018;2023-10-31T03:46:09;98619.60;;;13.39;66.32
80248;BME280;69560;52.206;21.018;2023-10-31T03:48:35;98613.31;;;13.40;66.38
80248;BME280;69560;52.206;21.018;2023-10-31T03:51:01;98598.71;;;13.42;66.36
80248;BME280;69560;52.206;21.018;2023-10-31T03:53:28;98588.42;;;13.43;66.25
80248;BME280;69560;52.206;21.018;2023-10-31T03:55:55;98588.52;;;13.47;66.24
80248;BME280;69560;52.206;21.018;2023-10-31T03:58:21;98585.79;;;13.48;66.26
80248;BME280;69560;52.206;21.018;2023-10-31T04:00:50;98584.48;;;13.50;66.23
80248;BME280;69560;52.206;21.018;2023-10-31T04:03:16;98581.77;;;13.50;66.36
80248;BME280;69560;52.206;21.018;2023-10-31T04:05:43;98580.27;;;13.50;66.23
80248;BME280;69560;52.206;21.018;2023-10-31T04:08:09;98568.05;;;13.52;66.32
80248;BME280;69560;52.206;21.018;2023-10-31T04:10:35;98564.64;;;13.55;66.23
80248;BME280;69560;52.206;21.018;2023-10-31T04:13:02;98560.94;;;13.57;66.21
80248;BME280;69560;52.206;21.018;2023-10-31T04:15:28;98565.89;;;13.56;66.17
80248;BME280;69560;52.206;21.018;2023-10-31T04:17:55;98564.11;;;13.58;66.32
80248;BME280;69560;52.206;21.018;2023-10-31T04:20:22;98560.50;;;13.59;66.38
80248;BME280;69560;52.206;21.018;2023-10-31T04:22:48;98565.30;;;13.62;66.35
80248;BME280;69560;52.206;21.018;2023-10-31T04:25:15;98549.83;;;13.63;66.21
80248;BME280;69560;52.206;21.018;2023-10-31T04:27:41;98537.76;;;13.66;66.23
80248;BME280;69560;52.206;21.018;2023-10-31T04:30:08;98529.67;;;13.68;66.27
80248;BME280;69560;52.206;21.018;2023-10-31T04:32:35;98537.73;;;13.71;66.25
80248;BME280;69560;52.206;21.018;2023-10-31T04:35:01;98530.90;;;13.74;66.20
80248;BME280;69560;52.206;21.018;2023-10-31T04:37:28;98538.09;;;13.77;66.07
80248;BME280;69560;52.206;21.018;2023-10-31T04:39:54;98534.75;;;13.81;66.22
80248;BME280;69560;52.206;21.018;2023-10-31T04:42:21;98531.38;;;13.85;66.07
80248;BME280;69560;52.206;21.018;2023-10-31T04:44:48;98521.30;;;13.87;66.08
80248;BME280;69560;52.206;21.018;2023-10-31T04:47:15;98501.02;;;13.90;66.07
80248;BME280;69560;52.206;21.018;2023-10-31T04:49:41;98495.58;;;13.91;66.00
80248;BME280;69560;52.206;21.018;2023-10-31T04:52:08;98492.83;;;13.94;65.95
80248;BME280;69560;52.206;21.018;2023-10-31T04:54:34;98488.90;;;13.98;65.98
80248;BME280;69560;52.206;21.018;2023-10-31T04:57:00;98480.00;;;14.01;65.83
80248;BME280;69560;52.206;21.018;2023-10-31T04:59:27;98485.90;;;14.05;65.87
80248;BME280;69560;52.206;21.018;2023-10-31T05:01:53;98483.38;;;14.07;65.80
80248;BME280;69560;52.206;21.018;2023-10-31T05:04:21;98474.73;;;14.09;65.76
80248;BME280;69560;52.206;21.018;2023-10-31T05:06:48;98469.24;;;14.12;65.63
80248;BME280;69560;52.206;21.018;2023-10-31T05:09:14;98458.48;;;14.15;65.61
80248;BME280;69560;52.206;21.018;2023-10-31T05:11:41;98446.53;;;14.19;65.44
80248;BME280;69560;52.206;21.018;2023-10-31T05:14:08;98439.54;;;14.21;65.64
80248;BME280;69560;52.206;21.018;2023-10-31T05:16:43;98431.44;;;14.23;65.52
80248;BME280;69560;52.206;21.018;2023-10-31T05:19:10;98426.41;;;14.27;65.33
80248;BME280;69560;52.206;21.018;2023-10-31T05:21:37;98424.50;;;14.31;65.30
80248;BME280;69560;52.206;21.018;2023-10-31T05:24:04;98424.70;;;14.33;65.07
80248;BME280;69560;52.206;21.018;2023-10-31T05:26:31;98422.90;;;14.35;65.08
80248;BME280;69560;52.206;21.018;2023-10-31T05:28:57;98424.77;;;14.36;64.98
80248;BME280;69560;52.206;21.018;2023-10-31T05:31:24;98431.70;;;14.37;65.01
80248;BME280;69560;52.206;21.018;2023-10-31T05:33:51;98427.90;;;14.39;64.92
80248;BME280;69560;52.206;21.018;2023-10-31T05:36:20;98428.65;;;14.41;64.87
80248;BME280;69560;52.206;21.018;2023-10-31T05:38:46;98428.56;;;14.45;64.79
80248;BME280;69560;52.206;21.018;2023-10-31T05:41:14;98427.59;;;14.45;64.65
80248;BME280;69560;52.206;21.018;2023-10-31T05:43:41;98423.89;;;14.46;64.66
80248;BME280;69560;52.206;21.018;2023-10-31T05:46:08;98423.31;;;14.47;64.59
80248;BME280;69560;52.206;21.018;2023-10-31T05:48:38;98420.30;;;14.49;64.56
80248;BME280;69560;52.206;21.018;2023-10-31T05:51:12;98431.35;;;14.54;64.52
80248;BME280;69560;52.206;21.018;2023-10-31T05:53:44;98434.10;;;14.58;64.46
80248;BME280;69560;52.206;21.018;2023-10-31T05:56:15;98442.64;;;14.61;64.31
80248;BME280;69560;52.206;21.018;2023-10-31T05:58:42;98439.84;;;14.61;64.14
80248;BME280;69560;52.206;21.018;2023-10-31T06:01:08;98433.61;;;14.62;63.97
80248;BME280;69560;52.206;21.018;2023-10-31T06:03:36;98415.94;;;14.64;64.08
80248;BME280;69560;52.206;21.018;2023-10-31T06:06:03;98418.35;;;14.66;64.09
80248;BME280;69560;52.206;21.018;2023-10-31T06:08:30;98420.41;;;14.67;63.97
80248;BME280;69560;52.206;21.018;2023-10-31T06:10:57;98420.61;;;14.68;64.07
80248;BME280;69560;52.206;21.018;2023-10-31T06:13:24;98420.69;;;14.71;63.88
80248;BME280;69560;52.206;21.018;2023-10-31T06:15:54;98422.15;;;14.73;63.88
80248;BME280;69560;52.206;21.018;2023-10-31T06:18:21;98431.80;;;14.76;63.72
80248;BME280;69560;52.206;21.018;2023-10-31T06:20:47;98430.38;;;14.78;63.76
80248;BME280;69560;52.206;21.018;2023-10-31T06:23:14;98428.11;;;14.80;63.69
80248;BME280;69560;52.206;21.018;2023-10-31T06:25:41;98424.52;;;14.81;63.62
80248;BME280;69560;52.206;21.018;2023-10-31T06:28:07;98431.16;;;14.82;63.51
80248;BME280;69560;52.206;21.018;2023-10-31T06:30:33;98424.61;;;14.83;63.60
80248;BME280;69560;52.206;21.018;2023-10-31T06:33:00;98430.43;;;14.86;63.67
80248;BME280;69560;52.206;21.018;2023-10-31T06:35:29;98441.23;;;14.87;63.43
80248;BME280;69560;52.206;21.018;2023-10-31T06:37:56;98432.83;;;14.89;63.49
80248;BME280;69560;52.206;21.018;2023-10-31T06:40:26;98425.20;;;14.91;63.55
80248;BME280;69560;52.206;21.018;2023-10-31T06:42:52;98428.38;;;14.91;63.39
80248;BME280;69560;52.206;21.018;2023-10-31T06:45:19;98417.46;;;14.91;63.41
80248;BME280;69560;52.206;21.018;2023-10-31T06:47:45;98413.52;;;14.89;63.26
80248;BME280;69560;52.206;21.018;2023-10-31T06:50:12;98413.88;;;14.87;63.34
80248;BME280;69560;52.206;21.018;2023-10-31T06:52:39;98421.28;;;14.88;63.37
80248;BME280;69560;52.206;21.018;2023-10-31T06:55:05;98421.19;;;14.89;63.32
80248;BME280;69560;52.206;21.018;2023-10-31T06:57:32;98436.34;;;14.89;63.46
80248;BME280;69560;52.206;21.018;2023-10-31T06:59:59;98427.79;;;14.90;63.49
80248;BME280;69560;52.206;21.018;2023-10-31T07:02:25;98416.49;;;14.89;63.44
80248;BME280;69560;52.206;21.018;2023-10-31T07:04:52;98412.48;;;14.86;63.24
80248;BME280;69560;52.206;21.018;2023-10-31T07:07:18;98407.84;;;14.84;63.27
80248;BME280;69560;52.206;21.018;2023-10-31T07:09:45;98405.06;;;14.83;63.44
80248;BME280;69560;52.206;21.018;2023-10-31T07:12:11;98404.17;;;14.84;63.44
80248;BME280;69560;52.206;21.018;2023-10-31T07:14:38;98400.20;;;14.83;63.20
80248;BME280;69560;52.206;21.018;2023-10-31T07:17:04;98407.21;;;14.84;63.21
80248;BME280;69560;52.206;21.018;2023-10-31T07:19:31;98400.57;;;14.84;63.39
80248;BME280;69560;52.206;21.018;2023-10-31T07:21:57;98399.39;;;14.84;63.28
80248;BME280;69560;52.206;21.018;2023-10-31T07:24:23;98397.72;;;14.87;63.26
80248;BME280;69560;52.206;21.018;2023-10-31T07:26:50;98398.16;;;14.88;63.25
80248;BME280;69560;52.206;21.018;2023-10-31T07:29:17;98391.16;;;14.90;63.33
80248;BME280;69560;52.206;21.018;2023-10-31T07:31:43;98381.51;;;14.93;63.26
80248;BME280;69560;52.206;21.018;2023-10-31T07:34:10;98373.92;;;14.96;63.15
80248;BME280;69560;52.206;21.018;2023-10-31T07:36:37;98366.27;;;14.99;63.17
80248;BME280;69560;52.206;21.018;2023-10-31T07:39:05;98368.00;;;15.00;62.96
80248;BME280;69560;52.206;21.018;2023-10-31T07:41:32;98369.77;;;15.02;63.00
80248;BME280;69560;52.206;21.018;2023-10-31T07:44:01;98368.48;;;15.05;62.84
80248;BME280;69560;52.206;21.018;2023-10-31T07:46:27;98375.80;;;15.09;62.93
80248;BME280;69560;52.206;21.018;2023-10-31T07:48:54;98371.64;;;15.12;62.82
80248;BME280;69560;52.206;21.018;2023-10-31T07:51:20;98382.32;;;15.13;62.64
80248;BME280;69560;52.206;21.018;2023-10-31T07:53:46;98390.42;;;15.13;62.64
80248;BME280;69560;52.206;21.018;2023-10-31T07:56:17;98390.84;;;15.16;62.62
80248;BME280;69560;52.206;21.018;2023-10-31T07:58:44;98391.33;;;15.18;62.69
80248;BME280;69560;52.206;21.018;2023-10-31T08:01:10;98380.45;;;15.19;62.62
80248;BME280;69560;52.206;21.018;2023-10-31T08:03:37;98366.55;;;15.19;62.69
80248;BME280;69560;52.206;21.018;2023-10-31T08:06:06;98356.90;;;15.19;62.44
80248;BME280;69560;52.206;21.018;2023-10-31T08:08:36;98350.33;;;15.17;62.65
80248;BME280;69560;52.206;21.018;2023-10-31T08:11:03;98346.87;;;15.19;62.54
80248;BME280;69560;52.206;21.018;2023-10-31T08:13:30;98339.02;;;15.22;62.45
80248;BME280;69560;52.206;21.018;2023-10-31T08:15:56;98342.99;;;15.25;62.51
80248;BME280;69560;52.206;21.018;2023-10-31T08:18:23;98348.35;;;15.28;62.38
80248;BME280;69560;52.206;21.018;2023-10-31T08:20:50;98345.25;;;15.30;62.38
80248;BME280;69560;52.206;21.018;2023-10-31T08:23:17;98347.09;;;15.33;62.45
80248;BME280;69560;52.206;21.018;2023-10-31T08:25:43;98349.43;;;15.37;62.32
80248;BME280;69560;52.206;21.018;2023-10-31T08:28:10;98353.55;;;15.41;62.24
80248;BME280;69560;52.206;21.018;2023-10-31T08:30:38;98346.15;;;15.46;62.09
80248;BME280;69560;52.206;21.018;2023-10-31T08:33:07;98333.27;;;15.49;61.88
80248;BME280;69560;52.206;21.018;2023-10-31T08:35:33;98322.70;;;15.50;61.90
80248;BME280;69560;52.206;21.018;2023-10-31T08:38:00;98311.16;;;15.54;62.05
80248;BME280;69560;52.206;21.018;2023-10-31T08:40:26;98309.15;;;15.60;61.95
80248;BME280;69560;52.206;21.018;2023-10-31T08:42:53;98326.06;;;15.66;62.01
80248;BME280;69560;52.206;21.018;2023-10-31T08:45:21;98337.48;;;15.73;61.76
80248;BME280;69560;52.206;21.018;2023-10-31T08:47:48;98338.65;;;15.79;61.75
80248;BME280;69560;52.206;21.018;2023-10-31T08:50:14;98338.80;;;15.84;61.55
80248;BME280;69560;52.206;21.018;2023-10-31T08:52:41;98345.50;;;15.87;61.60
80248;BME280;69560;52.206;21.018;2023-10-31T08:55:07;98331.52;;;15.87;61.45
80248;BME280;69560;52.206;21.018;2023-10-31T08:57:34;98332.00;;;15.90;61.34
80248;BME280;69560;52.206;21.018;2023-10-31T09:00:01;98338.34;;;15.92;61.41
80248;BME280;69560;52.206;21.018;2023-10-31T09:02:31;98331.19;;;15.95;61.30
80248;BME280;69560;52.206;21.018;2023-10-31T09:04:57;98332.28;;;15.98;61.06
80248;BME280;69560;52.206;21.018;2023-10-31T09:07:24;98326.73;;;16.02;61.04
80248;BME280;69560;52.206;21.018;2023-10-31T09:09:50;98341.80;;;16.05;60.89
80248;BME280;69560;52.206;21.018;2023-10-31T09:12:17;98341.92;;;16.06;60.93
80248;BME280;69560;52.206;21.018;2023-10-31T09:14:43;98341.49;;;16.05;60.77
80248;BME280;69560;52.206;21.018;2023-10-31T09:17:09;98333.30;;;16.04;60.67
80248;BME280;69560;52.206;21.018;2023-10-31T09:19:36;98334.27;;;16.01;60.38
80248;BME280;69560;52.206;21.018;2023-10-31T09:22:02;98332.46;;;16.00;60.57
80248;BME280;69560;52.206;21.018;2023-10-31T09:24:29;98330.17;;;15.99;60.44
80248;BME280;69560;52.206;21.018;2023-10-31T09:26:55;98335.08;;;15.98;60.44
80248;BME280;69560;52.206;21.018;2023-10-31T09:29:22;98334.16;;;15.99;60.46
80248;BME280;69560;52.206;21.018;2023-10-31T09:31:48;98336.10;;;16.01;60.46
80248;BME280;69560;52.206;21.018;2023-10-31T09:34:14;98329.91;;;16.03;60.43
80248;BME280;69560;52.206;21.018;2023-10-31T09:36:41;98330.75;;;16.03;60.32
80248;BME280;69560;52.206;21.018;2023-10-31T09:39:08;98328.46;;;16.05;60.03
80248;BME280;69560;52.206;21.018;2023-10-31T09:41:34;98329.86;;;16.06;60.12
80248;BME280;69560;52.206;21.018;2023-10-31T09:44:03;98335.72;;;16.08;59.91
80248;BME280;69560;52.206;21.018;2023-10-31T09:46:29;98331.59;;;16.09;59.79
80248;BME280;69560;52.206;21.018;2023-10-31T09:48:56;98339.80;;;16.15;59.63
80248;BME280;69560;52.206;21.018;2023-10-31T09:51:23;98340.30;;;16.19;59.57
80248;BME280;69560;52.206;21.018;2023-10-31T09:53:51;98344.33;;;16.23;59.47
80248;BME280;69560;52.206;21.018;2023-10-31T09:56:20;98345.23;;;16.26;59.35
80248;BME280;69560;52.206;21.018;2023-10-31T09:58:48;98340.52;;;16.31;59.46
80248;BME280;69560;52.206;21.018;2023-10-31T10:01:14;98339.42;;;16.35;59.27
80248;BME280;69560;52.206;21.018;2023-10-31T10:03:42;98334.96;;;16.40;59.08
80248;BME280;69560;52.206;21.018;2023-10-31T10:06:10;98334.21;;;16.45;59.22
80248;BME280;69560;52.206;21.018;2023-10-31T10:08:39;98329.63;;;16.49;58.96
80248;BME280;69560;52.206;21.018;2023-10-31T10:11:06;98330.45;;;16.53;58.90
80248;BME280;69560;52.206;21.018;2023-10-31T10:13:32;98332.27;;;16.56;58.88
80248;BME280;69560;52.206;21.018;2023-10-31T10:15:59;98334.79;;;16.59;58.64
80248;BME280;69560;52.206;21.018;2023-10-31T10:18:31;98332.52;;;16.64;58.63
80248;BME280;69560;52.206;21.018;2023-10-31T10:21:00;98335.82;;;16.70;58.65
80248;BME280;69560;52.206;21.018;2023-10-31T10:23:27;98335.52;;;16.75;58.47
80248;BME280;69560;52.206;21.018;2023-10-31T10:25:55;98332.41;;;16.79;58.34
80248;BME280;69560;52.206;21.018;2023-10-31T10:28:22;98339.06;;;16.85;58.22
80248;BME280;69560;52.206;21.018;2023-10-31T10:30:52;98338.15;;;16.90;58.26
80248;BME280;69560;52.206;21.018;2023-10-31T10:33:20;98337.04;;;16.94;58.06
80248;BME280;69560;52.206;21.018;2023-10-31T10:35:47;98339.39;;;17.00;57.83
80248;BME280;69560;52.206;21.018;2023-10-31T10:38:14;98344.84;;;17.06;57.89
80248;BME280;69560;52.206;21.018;2023-10-31T10:40:45;98344.47;;;17.10;57.62
80248;BME280;69560;52.206;21.018;2023-10-31T10:43:20;98342.27;;;17.13;57.46
80248;BME280;69560;52.206;21.018;2023-10-31T10:45:52;98335.58;;;17.18;57.63
80248;BME280;69560;52.206;21.018;2023-10-31T10:48:19;98333.70;;;17.25;57.58
80248;BME280;69560;52.206;21.018;2023-10-31T10:50:51;98332.15;;;17.33;57.52
80248;BME280;69560;52.206;21.018;2023-10-31T10:53:25;98327.45;;;17.38;57.52
80248;BME280;69560;52.206;21.018;2023-10-31T10:56:03;98330.03;;;17.44;57.39
80248;BME280;69560;52.206;21.018;2023-10-31T10:58:39;98336.79;;;17.48;57.22
80248;BME280;69560;52.206;21.018;2023-10-31T11:01:08;98341.81;;;17.53;57.30
80248;BME280;69560;52.206;21.018;2023-10-31T11:03:34;98342.05;;;17.55;57.05
80248;BME280;69560;52.206;21.018;2023-10-31T11:06:03;98345.55;;;17.56;57.09
80248;BME280;69560;52.206;21.018;2023-10-31T11:08:31;98345.23;;;17.58;56.94
80248;BME280;69560;52.206;21.018;2023-10-31T11:10:59;98347.11;;;17.59;56.87
80248;BME280;69560;52.206;21.018;2023-10-31T11:13:25;98350.73;;;17.58;56.96
80248;BME280;69560;52.206;21.018;2023-10-31T11:15:56;98354.59;;;17.58;56.86
80248;BME280;69560;52.206;21.018;2023-10-31T11:18:24;98360.73;;;17.59;56.97
80248;BME280;69560;52.206;21.018;2023-10-31T11:20:51;98363.08;;;17.60;57.04
80248;BME280;69560;52.206;21.018;2023-10-31T11:23:17;98374.55;;;17.62;57.06
80248;BME280;69560;52.206;21.018;2023-10-31T11:25:44;98366.45;;;17.64;57.12
80248;BME280;69560;52.206;21.018;2023-10-31T11:28:17;98362.29;;;17.66;57.19
80248;BME280;69560;52.206;21.018;2023-10-31T11:30:50;98362.20;;;17.66;57.11
80248;BME280;69560;52.206;21.018;2023-10-31T11:33:18;98371.83;;;17.67;57.04
80248;BME280;69560;52.206;21.018;2023-10-31T11:35:59;98364.20;;;17.68;57.08
80248;BME280;69560;52.206;21.018;2023-10-31T11:38:34;98374.15;;;17.68;56.98
80248;BME280;69560;52.206;21.018;2023-10-31T11:41:02;98361.61;;;17.69;57.06
80248;BME280;69560;52.206;21.018;2023-10-31T11:46:05;98357.29;;;17.71;57.13
80248;BME280;69560;52.206;21.018;2023-10-31T11:48:47;98356.95;;;17.71;57.19
80248;BME280;69560;52.206;21.018;2023-10-31T11:51:14;98356.23;;;17.71;57.12
80248;BME280;69560;52.206;21.018;2023-10-31T11:53:40;98352.15;;;17.65;57.22
80248;BME280;69560;52.206;21.018;2023-10-31T11:56:09;98352.39;;;17.63;57.25
80248;BME280;69560;52.206;21.018;2023-10-31T11:58:37;98379.84;;;17.68;57.38
80248;BME280;69560;52.206;21.018;2023-10-31T12:01:04;98379.59;;;17.64;57.46
80248;BME280;69560;52.206;21.018;2023-10-31T12:03:42;98389.09;;;17.61;57.38
80248;BME280;69560;52.206;21.018;2023-10-31T12:06:09;98397.11;;;17.60;57.65
80248;BME280;69560;52.206;21.018;2023-10-31T12:08:41;98395.99;;;17.60;57.68
80248;BME280;69560;52.206;21.018;2023-10-31T12:11:12;98397.77;;;17.72;57.89
80248;BME280;69560;52.206;21.018;2023-10-31T12:13:53;98393.34;;;17.83;57.70
80248;BME280;69560;52.206;21.018;2023-10-31T12:16:29;98398.69;;;18.17;58.03
80248;BME280;69560;52.206;21.018;2023-10-31T12:19:00;98388.25;;;18.90;57.94
80248;BME280;69560;52.206;21.018;2023-10-31T12:24:07;98383.42;;;20.23;57.00
80248;BME280;69560;52.206;21.018;2023-10-31T12:26:35;98383.26;;;20.11;55.98
80248;BME280;69560;52.206;21.018;2023-10-31T12:29:11;98388.48;;;19.93;55.43
80248;BME280;69560;52.206;21.018;2023-10-31T12:31:42;98392.58;;;19.77;55.14
80248;BME280;69560;52.206;21.018;2023-10-31T12:34:09;98395.52;;;19.66;55.15
80248;BME280;69560;52.206;21.018;2023-10-31T12:36:38;98400.48;;;19.75;55.30
80248;BME280;69560;52.206;21.018;2023-10-31T12:39:05;98396.34;;;19.86;55.52
80248;BME280;69560;52.206;21.018;2023-10-31T12:41:33;98401.20;;;19.78;55.15
80248;BME280;69560;52.206;21.018;2023-10-31T12:44:01;98414.29;;;19.58;54.86
80248;BME280;69560;52.206;21.018;2023-10-31T12:46:28;98414.23;;;19.35;54.65
80248;BME280;69560;52.206;21.018;2023-10-31T12:48:56;98415.41;;;19.12;54.88
80248;BME280;69560;52.206;21.018;2023-10-31T12:51:23;98412.48;;;18.96;55.11
80248;BME280;69560;52.206;21.018;2023-10-31T12:53:50;98419.37;;;18.82;55.08
80248;BME280;69560;52.206;21.018;2023-10-31T12:56:40;98428.20;;;18.63;55.20